Catàleg de serveis del Meteocat
Campanya meteocatpedra

Dades de l'estació automàtica Sant Martí Sarroca

?
?
Resum diari 21:30 TU
Dades diàries de l'estació meteorològica
Temperatura mitjana 14.1 °C
Temperatura màxima 19.2 °C 13:27 TU
Temperatura mínima 10.8 °C 3:56 TU
Humitat relativa mitjana 69%
Precipitació acumulada 0.0 mm
Ratxa màxima del vent (2 m) 36.7 km/h - 76º 14:34 TU
Irradiació solar global 13.1 MJ/m2

El tram horari està expressat en Temps Universal (TU). Cal sumar una hora en horari d'hivern i dues en horari d'estiu per passar a l'hora oficial.

Sant Martí Sarroca

Metadades estació meteorol´gica
Municipi Sant Martí Sarroca
Comarca Alt Penedès
Altitud 257 m
Data alta 24.05.1997
Estat actual Operativa
Dades de període
Període
TU
TM
°C
TX
°C
TN
°C
HRM
%
PPT
mm
VVM (2 m)
km/h
DVM (2 m)
graus
VVX (2 m)
km/h
RS
W/m2
00:00 - 00:30 11.4 11.5 11.4 91 0.0 4.0 11 9.0 0
00:30 - 01:00 11.5 11.5 11.5 91 0.0 4.0 3 9.4 0
01:00 - 01:30 11.8 12.0 11.5 91 0.0 2.2 348 7.9 0
01:30 - 02:00 12.1 12.1 12.0 89 0.0 2.5 10 7.2 0
02:00 - 02:30 12.1 12.1 12.1 88 0.0 4.3 22 10.4 0
02:30 - 03:00 11.9 12.1 11.7 88 0.0 3.6 16 10.1 0
03:00 - 03:30 11.4 11.7 11.1 89 0.0 4.0 6 11.5 0
03:30 - 04:00 11.0 11.2 10.8 90 0.0 3.6 358 9.0 0
04:00 - 04:30 10.9 11.0 10.9 90 0.0 3.6 10 11.5 0
04:30 - 05:00 10.9 11.0 10.9 89 0.0 4.0 4 11.2 0
05:00 - 05:30 11.0 11.1 10.9 88 0.0 4.3 357 10.8 3
05:30 - 06:00 11.0 11.1 11.0 87 0.0 3.2 346 10.1 28
06:00 - 06:30 11.3 11.5 11.2 85 0.0 2.2 347 7.9 78
06:30 - 07:00 11.7 11.8 11.6 83 0.0 4.3 27 13.7 132
07:00 - 07:30 11.9 12.0 11.8 82 0.0 6.1 35 15.8 111
07:30 - 08:00 12.2 12.5 12.0 80 0.0 5.8 33 15.8 149
08:00 - 08:30 12.6 12.7 12.4 77 0.0 5.0 2 16.6 115
08:30 - 09:00 13.2 13.9 12.7 73 0.0 7.2 36 16.9 305
09:00 - 09:30 13.6 14.0 13.4 72 0.0 7.2 53 16.2 268
09:30 - 10:00 14.1 14.2 14.0 68 0.0 7.6 51 19.4 227
10:00 - 10:30 14.5 14.8 14.1 59 0.0 9.7 52 23.4 317
10:30 - 11:00 15.0 15.2 14.8 53 0.0 11.9 55 28.4 288
11:00 - 11:30 15.4 16.1 15.0 52 0.0 9.7 58 21.6 335
11:30 - 12:00 16.6 17.1 16.1 49 0.0 13.7 63 27.7 630
12:00 - 12:30 17.2 18.0 16.7 47 0.0 14.8 72 33.8 630
12:30 - 13:00 18.2 18.6 17.9 47 0.0 15.5 67 36.4 884
13:00 - 13:30 18.5 19.2 18.1 49 0.0 15.1 73 32.8 712
13:30 - 14:00 18.6 18.9 18.4 49 0.0 9.7 116 26.6 421
14:00 - 14:30 18.0 18.7 17.7 52 0.0 11.5 105 26.3 289
14:30 - 15:00 17.5 17.9 17.4 55 0.0 15.5 81 36.7 294
15:00 - 15:30 17.3 17.6 16.9 55 0.0 15.5 78 34.2 316
15:30 - 16:00 16.8 17.0 16.6 57 0.0 14.0 69 33.1 266
16:00 - 16:30 16.6 16.8 16.4 57 0.0 14.8 75 34.6 253
16:30 - 17:00 16.4 16.5 16.3 60 0.0 12.6 62 36.4 169
17:00 - 17:30 16.1 16.3 15.8 62 0.0 11.5 73 25.9 73
17:30 - 18:00 15.6 15.8 15.4 62 0.0 10.4 77 25.6 27
18:00 - 18:30 15.3 15.4 15.3 62 0.0 8.6 72 22.3 6
18:30 - 19:00 15.1 15.3 14.9 61 0.0 8.6 60 23.8 0
19:00 - 19:30 14.6 14.9 14.4 65 0.0 5.8 41 18.4 0
19:30 - 20:00 14.2 14.4 14.1 67 0.0 6.8 28 18.0 0
20:00 - 20:30 14.3 14.4 14.2 61 0.0 8.6 40 20.5 0
20:30 - 21:00 14.4 14.4 14.3 57 0.0 9.4 42 25.6 0
21:00 - 21:30 14.3 14.4 14.3 56 0.0 11.5 48 27.7 0
21:30 - 22:00 14.2 14.2 14.1 57 0.0 10.8 52 34.6 0

Les dades en taronja només han passat un control de qualitat automàtic. Resta pendent la seva validació definitiva.